Correctionville, IA (51016)

2:27 PM CDT on July 30, 2014 (GMT -0500)
The Danbury Review (KIADANBU2) Elev 1162 ft | 42.24 °N, 95.72 °W | Change Station

Current weather conditions updated 2 minutes ago

Scattered Clouds
Scattered Clouds
78.6 °F
Feels Like 79 °F
N
0.0
Wind Variable Wind from ENE
Gusts 0.0 mph

Today is forecast to be Warmer than yesterday.

Today
High -- | Low -- °F
--% Chance of Precip.
Yesterday
High -- | Low -- °F
Precip. -- in
6:13 AM 8:45 PM
Waxing Crescent, 13% visible
Pressure 30.13 in
Visibility 10.0 miles
Clouds Scattered Clouds 6000 ft
Heat Index 79 °F
Dew Point 55 °F
Humidity 45%
Rainfall -999.00 in
Snow Depth Not available.
UV 8 out of 12
Pollen 5.70 out of 12
Air Quality Not available.
Flu Activity Not available.
METAR KCKP 301915Z AUTO 00000KT 10SM SCT060 24/13 A3013 RMK AO2 T02410130

More Conditions Fewer Conditions

Pressure 30.13 in
Visibility 10.0 miles
Clouds Scattered Clouds 6000 ft
Heat Index 79 °F
Dew Point 55 °F
Humidity 45%
Rainfall -999.00 in
Snow Depth Not available.
UV 8 out of 12
Pollen 5.70 out of 12
Air Quality Not available.
Flu Activity Not available.
METAR KCKP 301915Z AUTO 00000KT 10SM SCT060 24/13 A3013 RMK AO2 T02410130

More Conditions Fewer Conditions

10-Day Weather Forecast

Almanac

Astronomy

Jul. 30, 2014 Rise Set
Actual Time 6:13 AM CDT 8:45 PM CDT
Civil Twilight 5:41 AM CDT 9:17 PM CDT
Nautical Twilight 5:01 AM CDT 9:56 PM CDT
Astronomical Twilight 4:15 AM CDT 10:41 PM CDT
Moon 9:51 AM CDT 10:22 PM CDT
Length of Visible Light 15h 35m
Length of Day
14h 31m
Tomorrow will be 2m 8s shorter.
Waxing Crescent, 13% of the Moon is Illuminated
Today
Waxing Crescent
Aug 3
First Quarter
Aug 10
Full
Aug 17
Last Quarter
Aug 25
New

Today's Extremes

State Highs State Lows

Community

WunderPhotos

Upload Photos

1,739,162 photos uploaded!

WunderBlogs® & News

Nearby

Snow Depth

Station Depth Elevation
No new snow has been reported.

Earthquake Activity

City Distance Mag. Time & Date
No recent earthquake activity has been reported nearby.
Minimum magnitude displayed is 2.5.

Coastal Water Temperatures

Place Temperature
No Stations Reporting

Nearby Weather Stations

Station Location Temp. Heat Index Dew Point Humidity Wind Precip. Elev Updated Type
MesoWest SHAGBARK HILLS , Correctionville, IA 76 °F 78 °F 55 °F 48% North  at  3 mph 0.00 in / hr 1399 ft 1:00 PM CDT MADIS
The Danbury Review, Danbury, IA 78.6 °F 79 °F 55 °F 45% ENE  at  0.0 mph 0.00 in / hr 1162 ft 2:25 PM CDT Normal
SSW Union, Kingsley, IA 75.3 °F 78 °F 58 °F 54% ESE  at  3.0 mph 0.00 in / hr 1368 ft 2:20 PM CDT Normal
HADS WEST FORK DITCH AT HORNICK IA, Rodney, IA 77 °F 75 °F - - North  at  - 0.00 in / hr 1045 ft 1:00 PM CDT MADIS

Show More Stations Show Fewer Stations